Terminal Aerodrome Forecast
Issued by NWS Greer, SC

Home | Current Version | Previous Version | Text Only | Print | Product List | Glossary On
Versions: 1 2 3 4 5 6 7 8 9 10 11 12 13 14 15 16 17 18 19 20 21 22 23 24 25 26 27 28 29 30 31 32 33 34 35 36 37 38 39 40 41 42 43 44 45 46
000
FTUS42 KGSP 271736
TAFAVL
TAF
KAVL 271736Z 2718/2818 19006KT P6SM VCTS BKN050CB
     FM280100 16004KT P6SM VCSH BKN035
     FM280900 17004KT 4SM BR BKN015
     FM281100 17004KT 3SM BR BKN007
     FM281400 33007KT P6SM BKN025
     FM281600 33010G18KT P6SM BKN045=

USA.gov is the U.S. government's official web portal to all federal, state and local government web resources and services.